sensor_id;sensor_type;location;lat;lon;timestamp;P1;durP1;ratioP1;P2;durP2;ratioP2
70301;SDS011;57706;56.326;43.882;2022-08-21T00:01:57;14.50;;;7.53;;
70301;SDS011;57706;56.326;43.882;2022-08-21T00:04:23;12.45;;;7.13;;
70301;SDS011;57706;56.326;43.882;2022-08-21T00:06:50;11.57;;;7.72;;
70301;SDS011;57706;56.326;43.882;2022-08-21T00:09:34;18.75;;;8.73;;
70301;SDS011;57706;56.326;43.882;2022-08-21T00:12:01;10.13;;;7.40;;
70301;SDS011;57706;56.326;43.882;2022-08-21T00:14:28;9.88;;;7.75;;
70301;SDS011;57706;56.326;43.882;2022-08-21T00:16:53;14.20;;;8.35;;
70301;SDS011;57706;56.326;43.882;2022-08-21T00:19:19;7.68;;;6.20;;
70301;SDS011;57706;56.326;43.882;2022-08-21T00:21:46;14.20;;;8.85;;
70301;SDS011;57706;56.326;43.882;2022-08-21T00:24:12;14.07;;;7.90;;
70301;SDS011;57706;56.326;43.882;2022-08-21T00:26:38;12.82;;;8.20;;
70301;SDS011;57706;56.326;43.882;2022-08-21T00:29:04;11.07;;;8.05;;
70301;SDS011;57706;56.326;43.882;2022-08-21T00:31:30;11.63;;;8.50;;
70301;SDS011;57706;56.326;43.882;2022-08-21T00:33:56;13.95;;;9.25;;
70301;SDS011;57706;56.326;43.882;2022-08-21T00:36:40;15.15;;;9.60;;
70301;SDS011;57706;56.326;43.882;2022-08-21T00:39:07;13.45;;;8.68;;
70301;SDS011;57706;56.326;43.882;2022-08-21T00:41:34;13.15;;;8.65;;
70301;SDS011;57706;56.326;43.882;2022-08-21T00:44:01;18.08;;;9.57;;
70301;SDS011;57706;56.326;43.882;2022-08-21T00:46:27;20.08;;;9.40;;
70301;SDS011;57706;56.326;43.882;2022-08-21T00:48:53;14.77;;;8.52;;
70301;SDS011;57706;56.326;43.882;2022-08-21T00:51:20;14.95;;;9.38;;
70301;SDS011;57706;56.326;43.882;2022-08-21T00:53:53;18.15;;;9.73;;
70301;SDS011;57706;56.326;43.882;2022-08-21T00:56:23;18.17;;;9.98;;
70301;SDS011;57706;56.326;43.882;2022-08-21T00:58:49;16.25;;;9.75;;
70301;SDS011;57706;56.326;43.882;2022-08-21T01:01:18;15.38;;;9.80;;
70301;SDS011;57706;56.326;43.882;2022-08-21T01:03:45;18.08;;;10.55;;
70301;SDS011;57706;56.326;43.882;2022-08-21T01:06:12;21.50;;;11.52;;
70301;SDS011;57706;56.326;43.882;2022-08-21T01:08:38;15.80;;;10.35;;
70301;SDS011;57706;56.326;43.882;2022-08-21T01:11:04;18.58;;;10.60;;
70301;SDS011;57706;56.326;43.882;2022-08-21T01:13:32;24.45;;;12.45;;
70301;SDS011;57706;56.326;43.882;2022-08-21T01:16:02;19.90;;;10.10;;
70301;SDS011;57706;56.326;43.882;2022-08-21T01:18:30;23.92;;;12.30;;
70301;SDS011;57706;56.326;43.882;2022-08-21T01:21:19;19.10;;;12.40;;
70301;SDS011;57706;56.326;43.882;2022-08-21T01:23:44;20.83;;;12.25;;
70301;SDS011;57706;56.326;43.882;2022-08-21T01:26:11;20.48;;;11.88;;
70301;SDS011;57706;56.326;43.882;2022-08-21T01:28:43;23.25;;;13.50;;
70301;SDS011;57706;56.326;43.882;2022-08-21T01:31:30;31.05;;;20.67;;
70301;SDS011;57706;56.326;43.882;2022-08-21T01:33:58;30.10;;;17.40;;
70301;SDS011;57706;56.326;43.882;2022-08-21T01:36:25;24.73;;;14.95;;
70301;SDS011;57706;56.326;43.882;2022-08-21T01:38:51;27.20;;;16.17;;
70301;SDS011;57706;56.326;43.882;2022-08-21T01:41:17;26.58;;;15.32;;
70301;SDS011;57706;56.326;43.882;2022-08-21T01:43:44;26.65;;;14.93;;
70301;SDS011;57706;56.326;43.882;2022-08-21T01:46:10;25.25;;;16.88;;
70301;SDS011;57706;56.326;43.882;2022-08-21T01:48:37;26.23;;;17.98;;
70301;SDS011;57706;56.326;43.882;2022-08-21T01:51:04;30.17;;;19.23;;
70301;SDS011;57706;56.326;43.882;2022-08-21T01:53:31;38.55;;;22.67;;
70301;SDS011;57706;56.326;43.882;2022-08-21T01:56:01;39.60;;;27.13;;
70301;SDS011;57706;56.326;43.882;2022-08-21T01:58:28;50.65;;;32.25;;
70301;SDS011;57706;56.326;43.882;2022-08-21T02:00:54;50.75;;;33.63;;
70301;SDS011;57706;56.326;43.882;2022-08-21T02:03:20;64.95;;;37.45;;
70301;SDS011;57706;56.326;43.882;2022-08-21T02:05:46;72.75;;;44.10;;
70301;SDS011;57706;56.326;43.882;2022-08-21T02:08:12;73.57;;;45.47;;
70301;SDS011;57706;56.326;43.882;2022-08-21T02:10:38;75.60;;;43.00;;
70301;SDS011;57706;56.326;43.882;2022-08-21T02:13:06;87.72;;;50.63;;
70301;SDS011;57706;56.326;43.882;2022-08-21T02:15:32;79.30;;;45.08;;
70301;SDS011;57706;56.326;43.882;2022-08-21T02:18:00;75.05;;;47.38;;
70301;SDS011;57706;56.326;43.882;2022-08-21T02:20:28;81.47;;;47.97;;
70301;SDS011;57706;56.326;43.882;2022-08-21T02:22:59;86.22;;;52.03;;
70301;SDS011;57706;56.326;43.882;2022-08-21T02:25:26;93.60;;;52.38;;
70301;SDS011;57706;56.326;43.882;2022-08-21T02:27:53;96.18;;;58.53;;
70301;SDS011;57706;56.326;43.882;2022-08-21T02:30:24;98.80;;;59.92;;
70301;SDS011;57706;56.326;43.882;2022-08-21T02:32:55;111.95;;;68.57;;
70301;SDS011;57706;56.326;43.882;2022-08-21T02:35:40;106.95;;;61.75;;
70301;SDS011;57706;56.326;43.882;2022-08-21T02:38:08;112.70;;;68.10;;
70301;SDS011;57706;56.326;43.882;2022-08-21T02:40:38;110.20;;;61.90;;
70301;SDS011;57706;56.326;43.882;2022-08-21T02:43:05;112.38;;;67.55;;
70301;SDS011;57706;56.326;43.882;2022-08-21T02:45:32;114.07;;;67.55;;
70301;SDS011;57706;56.326;43.882;2022-08-21T02:48:02;112.43;;;68.28;;
70301;SDS011;57706;56.326;43.882;2022-08-21T02:50:32;119.60;;;69.72;;
70301;SDS011;57706;56.326;43.882;2022-08-21T02:53:00;115.90;;;62.15;;
70301;SDS011;57706;56.326;43.882;2022-08-21T02:55:28;114.03;;;69.57;;
70301;SDS011;57706;56.326;43.882;2022-08-21T02:57:56;119.80;;;73.68;;
70301;SDS011;57706;56.326;43.882;2022-08-21T03:00:24;116.40;;;71.10;;
70301;SDS011;57706;56.326;43.882;2022-08-21T03:02:51;120.72;;;73.22;;
70301;SDS011;57706;56.326;43.882;2022-08-21T03:05:19;117.22;;;75.25;;
70301;SDS011;57706;56.326;43.882;2022-08-21T03:07:45;128.95;;;76.80;;
70301;SDS011;57706;56.326;43.882;2022-08-21T03:10:14;133.75;;;82.10;;
70301;SDS011;57706;56.326;43.882;2022-08-21T03:12:40;131.73;;;81.20;;
70301;SDS011;57706;56.326;43.882;2022-08-21T03:15:07;130.35;;;81.43;;
70301;SDS011;57706;56.326;43.882;2022-08-21T03:17:37;140.52;;;87.32;;
70301;SDS011;57706;56.326;43.882;2022-08-21T03:20:05;154.82;;;89.97;;
70301;SDS011;57706;56.326;43.882;2022-08-21T03:22:32;144.30;;;88.53;;
70301;SDS011;57706;56.326;43.882;2022-08-21T03:24:58;148.00;;;89.97;;
70301;SDS011;57706;56.326;43.882;2022-08-21T03:27:24;152.38;;;90.60;;
70301;SDS011;57706;56.326;43.882;2022-08-21T03:29:52;148.57;;;91.50;;
70301;SDS011;57706;56.326;43.882;2022-08-21T03:32:19;159.15;;;93.53;;
70301;SDS011;57706;56.326;43.882;2022-08-21T03:34:45;150.57;;;95.93;;
70301;SDS011;57706;56.326;43.882;2022-08-21T03:37:12;149.43;;;84.97;;
70301;SDS011;57706;56.326;43.882;2022-08-21T03:39:39;150.07;;;84.30;;
70301;SDS011;57706;56.326;43.882;2022-08-21T03:42:07;159.18;;;96.38;;
70301;SDS011;57706;56.326;43.882;2022-08-21T03:44:34;166.85;;;95.10;;
70301;SDS011;57706;56.326;43.882;2022-08-21T03:47:01;164.85;;;97.47;;
70301;SDS011;57706;56.326;43.882;2022-08-21T03:49:27;161.88;;;98.68;;
70301;SDS011;57706;56.326;43.882;2022-08-21T03:51:54;168.65;;;99.80;;
70301;SDS011;57706;56.326;43.882;2022-08-21T03:54:20;171.27;;;102.57;;
70301;SDS011;57706;56.326;43.882;2022-08-21T03:56:45;169.40;;;106.13;;
70301;SDS011;57706;56.326;43.882;2022-08-21T03:59:12;167.93;;;104.35;;
70301;SDS011;57706;56.326;43.882;2022-08-21T04:01:38;183.10;;;111.93;;
70301;SDS011;57706;56.326;43.882;2022-08-21T04:04:05;192.15;;;118.20;;
70301;SDS011;57706;56.326;43.882;2022-08-21T04:06:32;179.85;;;107.72;;
70301;SDS011;57706;56.326;43.882;2022-08-21T04:08:58;202.68;;;123.53;;
70301;SDS011;57706;56.326;43.882;2022-08-21T04:11:24;203.80;;;125.60;;
70301;SDS011;57706;56.326;43.882;2022-08-21T04:13:50;206.40;;;125.43;;
70301;SDS011;57706;56.326;43.882;2022-08-21T04:16:16;214.32;;;127.20;;
70301;SDS011;57706;56.326;43.882;2022-08-21T04:18:43;208.85;;;128.05;;
70301;SDS011;57706;56.326;43.882;2022-08-21T04:21:09;203.35;;;124.20;;
70301;SDS011;57706;56.326;43.882;2022-08-21T04:23:36;213.63;;;129.20;;
70301;SDS011;57706;56.326;43.882;2022-08-21T04:26:02;209.77;;;129.48;;
70301;SDS011;57706;56.326;43.882;2022-08-21T04:28:28;218.68;;;134.05;;
70301;SDS011;57706;56.326;43.882;2022-08-21T04:30:54;228.68;;;137.10;;
70301;SDS011;57706;56.326;43.882;2022-08-21T04:33:21;230.43;;;137.20;;
70301;SDS011;57706;56.326;43.882;2022-08-21T04:35:48;220.63;;;135.45;;
70301;SDS011;57706;56.326;43.882;2022-08-21T04:38:15;227.95;;;135.45;;
70301;SDS011;57706;56.326;43.882;2022-08-21T04:40:41;219.57;;;133.90;;
70301;SDS011;57706;56.326;43.882;2022-08-21T04:43:08;221.85;;;135.18;;
70301;SDS011;57706;56.326;43.882;2022-08-21T04:45:36;217.73;;;135.25;;
70301;SDS011;57706;56.326;43.882;2022-08-21T04:48:05;219.50;;;134.82;;
70301;SDS011;57706;56.326;43.882;2022-08-21T04:53:14;206.27;;;126.22;;
70301;SDS011;57706;56.326;43.882;2022-08-21T04:55:46;194.73;;;115.60;;
70301;SDS011;57706;56.326;43.882;2022-08-21T04:58:13;194.02;;;110.95;;
70301;SDS011;57706;56.326;43.882;2022-08-21T05:00:42;191.00;;;116.70;;
70301;SDS011;57706;56.326;43.882;2022-08-21T05:03:10;189.80;;;117.55;;
70301;SDS011;57706;56.326;43.882;2022-08-21T05:05:37;181.52;;;109.70;;
70301;SDS011;57706;56.326;43.882;2022-08-21T05:08:04;177.82;;;106.32;;
70301;SDS011;57706;56.326;43.882;2022-08-21T05:10:32;166.63;;;99.85;;
70301;SDS011;57706;56.326;43.882;2022-08-21T05:12:59;161.00;;;98.20;;
70301;SDS011;57706;56.326;43.882;2022-08-21T05:15:25;163.18;;;100.82;;
70301;SDS011;57706;56.326;43.882;2022-08-21T05:17:51;158.55;;;96.45;;
70301;SDS011;57706;56.326;43.882;2022-08-21T05:20:17;152.52;;;92.05;;
70301;SDS011;57706;56.326;43.882;2022-08-21T05:22:44;154.27;;;91.60;;
70301;SDS011;57706;56.326;43.882;2022-08-21T05:25:10;147.45;;;91.70;;
70301;SDS011;57706;56.326;43.882;2022-08-21T05:27:37;140.85;;;84.85;;
70301;SDS011;57706;56.326;43.882;2022-08-21T05:30:04;64.25;;;38.35;;
70301;SDS011;57706;56.326;43.882;2022-08-21T05:32:33;31.67;;;18.85;;
70301;SDS011;57706;56.326;43.882;2022-08-21T05:34:59;25.52;;;15.07;;
70301;SDS011;57706;56.326;43.882;2022-08-21T05:37:25;22.42;;;10.68;;
70301;SDS011;57706;56.326;43.882;2022-08-21T05:39:51;20.67;;;10.38;;
70301;SDS011;57706;56.326;43.882;2022-08-21T05:42:17;43.83;;;25.88;;
70301;SDS011;57706;56.326;43.882;2022-08-21T05:44:43;48.50;;;30.40;;
70301;SDS011;57706;56.326;43.882;2022-08-21T05:47:09;24.40;;;12.48;;
70301;SDS011;57706;56.326;43.882;2022-08-21T05:49:36;30.38;;;18.52;;
70301;SDS011;57706;56.326;43.882;2022-08-21T05:52:03;21.27;;;11.55;;
70301;SDS011;57706;56.326;43.882;2022-08-21T05:54:29;21.23;;;11.40;;
70301;SDS011;57706;56.326;43.882;2022-08-21T05:56:56;14.77;;;9.85;;
70301;SDS011;57706;56.326;43.882;2022-08-21T05:59:22;18.85;;;9.95;;
70301;SDS011;57706;56.326;43.882;2022-08-21T06:02:07;19.67;;;10.73;;
70301;SDS011;57706;56.326;43.882;2022-08-21T06:04:37;30.88;;;18.52;;
70301;SDS011;57706;56.326;43.882;2022-08-21T06:07:04;23.60;;;12.18;;
70301;SDS011;57706;56.326;43.882;2022-08-21T06:09:30;26.98;;;14.68;;
70301;SDS011;57706;56.326;43.882;2022-08-21T06:11:57;32.40;;;17.92;;
70301;SDS011;57706;56.326;43.882;2022-08-21T06:14:23;41.60;;;23.65;;
70301;SDS011;57706;56.326;43.882;2022-08-21T06:16:49;33.72;;;20.35;;
70301;SDS011;57706;56.326;43.882;2022-08-21T06:19:15;37.08;;;21.17;;
70301;SDS011;57706;56.326;43.882;2022-08-21T06:21:41;36.17;;;21.45;;
70301;SDS011;57706;56.326;43.882;2022-08-21T06:24:06;35.92;;;21.58;;
70301;SDS011;57706;56.326;43.882;2022-08-21T06:26:32;39.60;;;22.02;;
70301;SDS011;57706;56.326;43.882;2022-08-21T06:28:58;37.53;;;22.70;;
70301;SDS011;57706;56.326;43.882;2022-08-21T06:31:25;43.65;;;24.33;;
70301;SDS011;57706;56.326;43.882;2022-08-21T06:33:52;35.95;;;22.30;;
70301;SDS011;57706;56.326;43.882;2022-08-21T06:36:19;40.92;;;25.67;;
70301;SDS011;57706;56.326;43.882;2022-08-21T06:38:49;42.28;;;28.65;;
70301;SDS011;57706;56.326;43.882;2022-08-21T06:41:15;43.90;;;29.63;;
70301;SDS011;57706;56.326;43.882;2022-08-21T06:43:40;49.50;;;33.65;;
70301;SDS011;57706;56.326;43.882;2022-08-21T06:46:07;41.67;;;27.92;;
70301;SDS011;57706;56.326;43.882;2022-08-21T06:48:32;28.02;;;20.15;;
70301;SDS011;57706;56.326;43.882;2022-08-21T06:51:00;30.50;;;18.48;;
70301;SDS011;57706;56.326;43.882;2022-08-21T06:53:26;23.35;;;15.07;;
70301;SDS011;57706;56.326;43.882;2022-08-21T06:55:52;19.98;;;14.63;;
70301;SDS011;57706;56.326;43.882;2022-08-21T06:58:18;18.73;;;13.05;;
70301;SDS011;57706;56.326;43.882;2022-08-21T07:00:47;18.25;;;13.05;;
70301;SDS011;57706;56.326;43.882;2022-08-21T07:03:17;17.33;;;12.88;;
70301;SDS011;57706;56.326;43.882;2022-08-21T07:05:52;20.90;;;13.10;;
70301;SDS011;57706;56.326;43.882;2022-08-21T07:08:20;26.10;;;14.95;;
70301;SDS011;57706;56.326;43.882;2022-08-21T07:10:47;21.33;;;14.18;;
70301;SDS011;57706;56.326;43.882;2022-08-21T07:13:14;20.63;;;13.38;;
70301;SDS011;57706;56.326;43.882;2022-08-21T07:15:40;21.33;;;14.20;;
70301;SDS011;57706;56.326;43.882;2022-08-21T07:18:06;22.80;;;15.55;;
70301;SDS011;57706;56.326;43.882;2022-08-21T07:20:33;22.08;;;14.27;;
70301;SDS011;57706;56.326;43.882;2022-08-21T07:22:59;20.63;;;15.00;;
70301;SDS011;57706;56.326;43.882;2022-08-21T07:25:29;23.67;;;14.73;;
70301;SDS011;57706;56.326;43.882;2022-08-21T07:27:55;21.83;;;13.30;;
70301;SDS011;57706;56.326;43.882;2022-08-21T07:30:21;18.85;;;11.93;;
70301;SDS011;57706;56.326;43.882;2022-08-21T07:32:47;21.40;;;13.88;;
70301;SDS011;57706;56.326;43.882;2022-08-21T07:35:15;17.67;;;12.15;;
70301;SDS011;57706;56.326;43.882;2022-08-21T07:37:41;18.05;;;12.05;;
70301;SDS011;57706;56.326;43.882;2022-08-21T07:40:07;15.65;;;11.10;;
70301;SDS011;57706;56.326;43.882;2022-08-21T07:42:34;13.65;;;7.70;;
70301;SDS011;57706;56.326;43.882;2022-08-21T07:45:00;13.65;;;8.40;;
70301;SDS011;57706;56.326;43.882;2022-08-21T07:47:25;12.20;;;7.53;;
70301;SDS011;57706;56.326;43.882;2022-08-21T07:49:51;16.48;;;6.30;;
70301;SDS011;57706;56.326;43.882;2022-08-21T07:52:17;13.85;;;6.30;;
70301;SDS011;57706;56.326;43.882;2022-08-21T07:55:02;9.05;;;5.65;;
70301;SDS011;57706;56.326;43.882;2022-08-21T07:57:29;8.23;;;5.95;;
70301;SDS011;57706;56.326;43.882;2022-08-21T08:00:14;7.03;;;5.55;;
70301;SDS011;57706;56.326;43.882;2022-08-21T08:02:46;11.48;;;4.45;;
70301;SDS011;57706;56.326;43.882;2022-08-21T08:05:18;9.65;;;5.45;;
70301;SDS011;57706;56.326;43.882;2022-08-21T08:07:46;6.95;;;4.88;;
70301;SDS011;57706;56.326;43.882;2022-08-21T08:10:13;9.70;;;4.10;;
70301;SDS011;57706;56.326;43.882;2022-08-21T08:12:40;6.82;;;3.88;;
70301;SDS011;57706;56.326;43.882;2022-08-21T08:15:08;6.00;;;3.65;;
70301;SDS011;57706;56.326;43.882;2022-08-21T08:17:36;10.45;;;6.40;;
70301;SDS011;57706;56.326;43.882;2022-08-21T08:20:04;7.70;;;3.88;;
70301;SDS011;57706;56.326;43.882;2022-08-21T08:22:33;8.85;;;4.18;;
70301;SDS011;57706;56.326;43.882;2022-08-21T08:24:59;9.02;;;4.03;;
70301;SDS011;57706;56.326;43.882;2022-08-21T08:27:26;14.20;;;4.70;;
70301;SDS011;57706;56.326;43.882;2022-08-21T08:29:51;6.70;;;3.67;;
70301;SDS011;57706;56.326;43.882;2022-08-21T08:32:17;7.30;;;3.95;;
70301;SDS011;57706;56.326;43.882;2022-08-21T08:34:44;7.93;;;3.78;;
70301;SDS011;57706;56.326;43.882;2022-08-21T08:37:12;9.82;;;4.97;;
70301;SDS011;57706;56.326;43.882;2022-08-21T08:39:38;8.10;;;3.30;;
70301;SDS011;57706;56.326;43.882;2022-08-21T08:42:14;5.82;;;3.92;;
70301;SDS011;57706;56.326;43.882;2022-08-21T08:44:55;9.10;;;4.18;;
70301;SDS011;57706;56.326;43.882;2022-08-21T08:47:37;8.88;;;4.18;;
70301;SDS011;57706;56.326;43.882;2022-08-21T08:50:12;6.55;;;3.33;;
70301;SDS011;57706;56.326;43.882;2022-08-21T08:58:05;5.32;;;3.08;;
70301;SDS011;57706;56.326;43.882;2022-08-21T09:00:32;6.72;;;4.00;;
70301;SDS011;57706;56.326;43.882;2022-08-21T09:03:01;8.32;;;3.70;;
70301;SDS011;57706;56.326;43.882;2022-08-21T09:08:29;11.32;;;3.70;;
70301;SDS011;57706;56.326;43.882;2022-08-21T09:11:13;3.90;;;2.88;;
70301;SDS011;57706;56.326;43.882;2022-08-21T09:27:42;3.97;;;3.58;;
70301;SDS011;57706;56.326;43.882;2022-08-21T09:30:09;9.13;;;2.70;;
70301;SDS011;57706;56.326;43.882;2022-08-21T09:32:37;8.15;;;3.40;;
70301;SDS011;57706;56.326;43.882;2022-08-21T09:40:27;4.45;;;3.53;;
70301;SDS011;57706;56.326;43.882;2022-08-21T09:45:37;9.65;;;3.70;;
70301;SDS011;57706;56.326;43.882;2022-08-21T09:48:08;7.70;;;3.67;;
70301;SDS011;57706;56.326;43.882;2022-08-21T09:50:35;6.82;;;3.72;;
70301;SDS011;57706;56.326;43.882;2022-08-21T09:53:01;6.47;;;4.22;;
70301;SDS011;57706;56.326;43.882;2022-08-21T09:55:33;7.40;;;3.90;;
70301;SDS011;57706;56.326;43.882;2022-08-21T09:58:30;6.63;;;2.83;;
70301;SDS011;57706;56.326;43.882;2022-08-21T10:00:59;8.98;;;3.40;;
70301;SDS011;57706;56.326;43.882;2022-08-21T10:03:27;10.60;;;3.67;;
70301;SDS011;57706;56.326;43.882;2022-08-21T10:05:54;4.88;;;3.25;;
70301;SDS011;57706;56.326;43.882;2022-08-21T10:08:26;5.43;;;3.28;;
70301;SDS011;57706;56.326;43.882;2022-08-21T10:10:56;7.22;;;3.63;;
70301;SDS011;57706;56.326;43.882;2022-08-21T10:14:14;5.78;;;3.30;;
70301;SDS011;57706;56.326;43.882;2022-08-21T10:23:03;6.25;;;3.15;;
70301;SDS011;57706;56.326;43.882;2022-08-21T10:25:35;4.78;;;3.60;;
70301;SDS011;57706;56.326;43.882;2022-08-21T10:28:12;5.00;;;3.42;;
70301;SDS011;57706;56.326;43.882;2022-08-21T10:35:51;7.78;;;3.40;;
70301;SDS011;57706;56.326;43.882;2022-08-21T10:38:32;9.27;;;3.90;;
70301;SDS011;57706;56.326;43.882;2022-08-21T10:44:21;3.50;;;2.60;;
70301;SDS011;57706;56.326;43.882;2022-08-21T10:46:56;5.10;;;3.13;;
70301;SDS011;57706;56.326;43.882;2022-08-21T10:49:45;8.88;;;3.25;;
70301;SDS011;57706;56.326;43.882;2022-08-21T10:55:17;5.63;;;2.63;;
70301;SDS011;57706;56.326;43.882;2022-08-21T11:00:13;4.78;;;3.15;;
70301;SDS011;57706;56.326;43.882;2022-08-21T11:02:49;9.10;;;3.17;;
70301;SDS011;57706;56.326;43.882;2022-08-21T11:05:29;10.02;;;3.20;;
70301;SDS011;57706;56.326;43.882;2022-08-21T11:13:13;5.00;;;3.25;;
70301;SDS011;57706;56.326;43.882;2022-08-21T11:15:48;5.35;;;3.30;;
70301;SDS011;57706;56.326;43.882;2022-08-21T11:18:27;5.05;;;2.35;;
70301;SDS011;57706;56.326;43.882;2022-08-21T11:21:06;4.72;;;2.20;;
70301;SDS011;57706;56.326;43.882;2022-08-21T11:26:36;8.40;;;2.85;;
70301;SDS011;57706;56.326;43.882;2022-08-21T11:29:13;5.70;;;2.90;;
70301;SDS011;57706;56.326;43.882;2022-08-21T11:31:49;4.68;;;3.10;;
70301;SDS011;57706;56.326;43.882;2022-08-21T11:39:59;6.55;;;3.53;;
70301;SDS011;57706;56.326;43.882;2022-08-21T11:43:03;5.38;;;3.08;;
70301;SDS011;57706;56.326;43.882;2022-08-21T11:45:45;4.82;;;3.00;;
70301;SDS011;57706;56.326;43.882;2022-08-21T11:51:05;9.32;;;3.08;;
70301;SDS011;57706;56.326;43.882;2022-08-21T11:53:47;3.53;;;2.78;;
70301;SDS011;57706;56.326;43.882;2022-08-21T11:56:33;6.00;;;2.83;;
70301;SDS011;57706;56.326;43.882;2022-08-21T11:59:20;5.88;;;3.00;;
70301;SDS011;57706;56.326;43.882;2022-08-21T12:01:56;7.63;;;3.20;;
70301;SDS011;57706;56.326;43.882;2022-08-21T12:04:32;5.35;;;2.90;;
70301;SDS011;57706;56.326;43.882;2022-08-21T12:07:17;5.22;;;2.90;;
70301;SDS011;57706;56.326;43.882;2022-08-21T12:10:13;7.50;;;3.03;;
70301;SDS011;57706;56.326;43.882;2022-08-21T12:12:43;5.75;;;3.50;;
70301;SDS011;57706;56.326;43.882;2022-08-21T12:15:23;5.70;;;3.00;;
70301;SDS011;57706;56.326;43.882;2022-08-21T12:17:54;3.80;;;2.80;;
70301;SDS011;57706;56.326;43.882;2022-08-21T12:20:35;6.68;;;2.53;;
70301;SDS011;57706;56.326;43.882;2022-08-21T12:23:14;8.35;;;3.05;;
70301;SDS011;57706;56.326;43.882;2022-08-21T12:25:47;10.02;;;3.35;;
70301;SDS011;57706;56.326;43.882;2022-08-21T12:28:26;10.18;;;2.83;;
70301;SDS011;57706;56.326;43.882;2022-08-21T12:30:53;16.60;;;3.88;;
70301;SDS011;57706;56.326;43.882;2022-08-21T12:33:27;10.32;;;5.40;;
70301;SDS011;57706;56.326;43.882;2022-08-21T12:36:17;6.00;;;2.80;;
70301;SDS011;57706;56.326;43.882;2022-08-21T12:41:49;3.20;;;2.90;;
70301;SDS011;57706;56.326;43.882;2022-08-21T12:44:15;7.15;;;2.88;;
70301;SDS011;57706;56.326;43.882;2022-08-21T12:47:04;6.70;;;2.53;;
70301;SDS011;57706;56.326;43.882;2022-08-21T12:49:43;6.68;;;3.00;;
70301;SDS011;57706;56.326;43.882;2022-08-21T12:52:21;8.02;;;3.15;;
70301;SDS011;57706;56.326;43.882;2022-08-21T12:55:12;6.65;;;3.10;;
70301;SDS011;57706;56.326;43.882;2022-08-21T12:57:40;5.38;;;2.75;;
70301;SDS011;57706;56.326;43.882;2022-08-21T13:00:08;5.85;;;3.13;;
70301;SDS011;57706;56.326;43.882;2022-08-21T13:02:45;4.72;;;2.90;;
70301;SDS011;57706;56.326;43.882;2022-08-21T13:05:14;4.10;;;2.30;;
70301;SDS011;57706;56.326;43.882;2022-08-21T13:07:55;3.55;;;2.25;;
70301;SDS011;57706;56.326;43.882;2022-08-21T13:10:23;10.90;;;3.05;;
70301;SDS011;57706;56.326;43.882;2022-08-21T13:13:02;4.07;;;2.83;;
70301;SDS011;57706;56.326;43.882;2022-08-21T13:15:31;7.95;;;2.95;;
70301;SDS011;57706;56.326;43.882;2022-08-21T13:18:00;3.65;;;2.88;;
70301;SDS011;57706;56.326;43.882;2022-08-21T13:20:48;7.72;;;2.70;;
70301;SDS011;57706;56.326;43.882;2022-08-21T13:25:47;6.85;;;2.80;;
70301;SDS011;57706;56.326;43.882;2022-08-21T13:28:13;6.15;;;2.10;;
70301;SDS011;57706;56.326;43.882;2022-08-21T13:30:44;4.28;;;2.58;;
70301;SDS011;57706;56.326;43.882;2022-08-21T13:33:15;6.18;;;3.08;;
70301;SDS011;57706;56.326;43.882;2022-08-21T13:36:01;5.90;;;3.70;;
70301;SDS011;57706;56.326;43.882;2022-08-21T13:38:53;8.57;;;2.53;;
70301;SDS011;57706;56.326;43.882;2022-08-21T13:41:38;4.68;;;2.30;;
70301;SDS011;57706;56.326;43.882;2022-08-21T13:44:17;4.93;;;2.90;;
70301;SDS011;57706;56.326;43.882;2022-08-21T13:46:52;4.65;;;2.78;;
70301;SDS011;57706;56.326;43.882;2022-08-21T13:49:20;3.17;;;2.20;;
70301;SDS011;57706;56.326;43.882;2022-08-21T13:51:52;7.28;;;3.10;;
70301;SDS011;57706;56.326;43.882;2022-08-21T13:54:26;5.65;;;2.95;;
70301;SDS011;57706;56.326;43.882;2022-08-21T13:56:53;5.75;;;2.55;;
70301;SDS011;57706;56.326;43.882;2022-08-21T13:59:24;7.97;;;2.58;;
70301;SDS011;57706;56.326;43.882;2022-08-21T14:01:57;8.50;;;2.60;;
70301;SDS011;57706;56.326;43.882;2022-08-21T14:04:29;5.95;;;2.72;;
70301;SDS011;57706;56.326;43.882;2022-08-21T14:07:00;6.30;;;2.70;;
70301;SDS011;57706;56.326;43.882;2022-08-21T14:09:32;6.03;;;2.90;;
70301;SDS011;57706;56.326;43.882;2022-08-21T14:12:24;6.28;;;2.00;;
70301;SDS011;57706;56.326;43.882;2022-08-21T14:14:51;4.47;;;2.72;;
70301;SDS011;57706;56.326;43.882;2022-08-21T14:17:27;7.82;;;2.80;;
70301;SDS011;57706;56.326;43.882;2022-08-21T14:19:55;8.80;;;3.58;;
70301;SDS011;57706;56.326;43.882;2022-08-21T14:22:28;7.00;;;3.75;;
70301;SDS011;57706;56.326;43.882;2022-08-21T14:27:31;10.00;;;3.03;;
70301;SDS011;57706;56.326;43.882;2022-08-21T14:30:03;8.18;;;2.78;;
70301;SDS011;57706;56.326;43.882;2022-08-21T14:32:36;5.18;;;2.70;;
70301;SDS011;57706;56.326;43.882;2022-08-21T14:35:04;5.03;;;2.90;;
70301;SDS011;57706;56.326;43.882;2022-08-21T14:37:31;4.75;;;2.60;;
70301;SDS011;57706;56.326;43.882;2022-08-21T14:39:57;5.88;;;2.97;;
70301;SDS011;57706;56.326;43.882;2022-08-21T14:42:23;5.25;;;3.00;;
70301;SDS011;57706;56.326;43.882;2022-08-21T14:44:50;6.65;;;2.80;;
70301;SDS011;57706;56.326;43.882;2022-08-21T14:47:16;5.38;;;3.30;;
70301;SDS011;57706;56.326;43.882;2022-08-21T14:49:42;6.95;;;3.38;;
70301;SDS011;57706;56.326;43.882;2022-08-21T14:52:08;5.90;;;2.95;;
70301;SDS011;57706;56.326;43.882;2022-08-21T14:54:34;9.07;;;3.00;;
70301;SDS011;57706;56.326;43.882;2022-08-21T14:57:01;6.55;;;2.92;;
70301;SDS011;57706;56.326;43.882;2022-08-21T14:59:34;9.02;;;5.65;;
70301;SDS011;57706;56.326;43.882;2022-08-21T15:02:00;8.93;;;3.47;;
70301;SDS011;57706;56.326;43.882;2022-08-21T15:04:28;20.10;;;3.45;;
70301;SDS011;57706;56.326;43.882;2022-08-21T15:06:54;6.13;;;3.00;;
70301;SDS011;57706;56.326;43.882;2022-08-21T15:09:20;7.10;;;3.22;;
70301;SDS011;57706;56.326;43.882;2022-08-21T15:11:46;3.88;;;2.50;;
70301;SDS011;57706;56.326;43.882;2022-08-21T15:14:18;7.25;;;2.83;;
70301;SDS011;57706;56.326;43.882;2022-08-21T15:16:50;8.82;;;2.90;;
70301;SDS011;57706;56.326;43.882;2022-08-21T15:19:16;13.07;;;3.17;;
70301;SDS011;57706;56.326;43.882;2022-08-21T15:21:42;4.57;;;3.03;;
70301;SDS011;57706;56.326;43.882;2022-08-21T15:24:08;7.20;;;3.13;;
70301;SDS011;57706;56.326;43.882;2022-08-21T15:26:35;5.38;;;3.00;;
70301;SDS011;57706;56.326;43.882;2022-08-21T15:29:02;9.95;;;5.55;;
70301;SDS011;57706;56.326;43.882;2022-08-21T15:31:30;9.15;;;5.05;;
70301;SDS011;57706;56.326;43.882;2022-08-21T15:33:56;6.32;;;3.28;;
70301;SDS011;57706;56.326;43.882;2022-08-21T15:36:22;4.63;;;3.05;;
70301;SDS011;57706;56.326;43.882;2022-08-21T15:38:48;7.22;;;3.20;;
70301;SDS011;57706;56.326;43.882;2022-08-21T15:41:14;8.13;;;2.70;;
70301;SDS011;57706;56.326;43.882;2022-08-21T15:43:42;6.20;;;3.40;;
70301;SDS011;57706;56.326;43.882;2022-08-21T15:46:14;5.82;;;2.75;;
70301;SDS011;57706;56.326;43.882;2022-08-21T15:48:42;6.65;;;2.78;;
70301;SDS011;57706;56.326;43.882;2022-08-21T15:51:09;6.38;;;2.70;;
70301;SDS011;57706;56.326;43.882;2022-08-21T15:53:36;8.25;;;3.13;;